Time;durP1;ratioP1;P1;durP2;ratioP2;P2;SDS_P1;SDS_P2;PMS_P1;PMS_P2;Temp;Humidity;BMP_temperature;BMP_pressure;BME280_temperature;BME280_humidity;BME280_pressure;Samples;Min_cycle;Max_cycle;Signal;HPM_P1;HPM_P2
2023/02/04 00:01:23;;;;;;;12.17;3.20;;;11.40;99.90;;;;;;5051791;28;20172;-77
2023/02/04 00:03:49;;;;;;;14.20;2.33;;;11.40;99.90;;;;;;5051616;28;20598;-77
2023/02/04 00:06:15;;;;;;;7.13;2.50;;;11.40;99.90;;;;;;5051207;28;20205;-77
2023/02/04 00:08:40;;;;;;;14.13;4.33;;;11.30;99.90;;;;;;5034042;28;20554;-77
2023/02/04 00:11:06;;;;;;;14.10;3.23;;;11.30;99.90;;;;;;5051453;28;20181;-77
2023/02/04 00:13:32;;;;;;;12.67;2.47;;;11.30;99.90;;;;;;5050347;28;20180;-77
2023/02/04 00:15:57;;;;;;;7.80;2.57;;;11.30;99.90;;;;;;5049660;28;20208;-78
2023/02/04 00:18:23;;;;;;;12.40;3.83;;;11.30;99.90;;;;;;5050336;28;20239;-77
2023/02/04 00:20:49;;;;;;;14.27;3.03;;;11.30;99.90;;;;;;5050546;28;20568;-77
2023/02/04 00:23:14;;;;;;;8.47;2.00;;;11.30;99.90;;;;;;5053034;28;20635;-77
2023/02/04 00:25:40;;;;;;;11.17;2.40;;;11.20;99.90;;;;;;5049913;28;20197;-77
2023/02/04 00:28:06;;;;;;;12.67;2.30;;;11.20;99.90;;;;;;5033637;28;20181;-77
2023/02/04 00:30:31;;;;;;;11.27;4.20;;;11.20;99.90;;;;;;5051601;28;20181;-77
2023/02/04 00:32:57;;;;;;;11.17;2.60;;;11.20;99.90;;;;;;5033480;28;20287;-77
2023/02/04 00:35:23;;;;;;;10.33;3.10;;;11.20;99.90;;;;;;5049482;28;20238;-77
2023/02/04 00:37:51;;;;;;;10.57;2.95;;;11.20;99.90;;;;;;5050280;28;21050;-77
2023/02/04 00:40:17;;;;;;;11.38;3.58;;;11.20;99.90;;;;;;5033402;28;20200;-77
2023/02/04 00:42:43;;;;;;;9.20;2.87;;;11.20;99.90;;;;;;5049814;28;20211;-77
2023/02/04 00:45:10;;;;;;;12.87;2.47;;;11.20;99.90;;;;;;5032812;28;20574;-77
2023/02/04 00:47:37;;;;;;;8.73;2.58;;;11.20;99.90;;;;;;5051061;28;20652;-77
2023/02/04 00:50:03;;;;;;;9.87;2.50;;;11.20;99.90;;;;;;5050146;28;20171;-77
2023/02/04 00:52:29;;;;;;;9.02;2.17;;;11.20;99.90;;;;;;5050894;28;20242;-76
2023/02/04 00:54:54;;;;;;;10.73;2.37;;;11.20;99.90;;;;;;5051164;28;20215;-77
2023/02/04 00:57:21;;;;;;;9.73;2.65;;;11.20;99.90;;;;;;5033333;28;20574;-77
2023/02/04 00:59:46;;;;;;;13.87;2.37;;;11.10;99.90;;;;;;5052236;28;20173;-77
2023/02/04 01:02:12;;;;;;;9.63;2.80;;;11.10;99.90;;;;;;5033137;28;20177;-77
2023/02/04 01:04:38;;;;;;;16.90;3.63;;;11.10;99.90;;;;;;5049711;28;20181;-77
2023/02/04 01:07:03;;;;;;;12.07;3.00;;;11.10;99.90;;;;;;5053056;28;20568;-77
2023/02/04 01:09:29;;;;;;;12.33;2.47;;;11.10;99.90;;;;;;5054405;28;20177;-77
2023/02/04 01:11:56;;;;;;;10.57;3.10;;;11.10;99.90;;;;;;5053348;28;20177;-77
2023/02/04 01:14:21;;;;;;;13.87;2.90;;;11.10;99.90;;;;;;5054063;28;20641;-77
2023/02/04 01:16:47;;;;;;;15.63;3.70;;;11.10;99.90;;;;;;5054594;28;20643;-77
2023/02/04 01:19:13;;;;;;;7.80;2.30;;;11.10;99.90;;;;;;5055016;28;20180;-77
2023/02/04 01:21:39;;;;;;;14.50;2.70;;;11.00;99.90;;;;;;5053980;28;20256;-77
2023/02/04 01:24:04;;;;;;;8.97;2.07;;;11.00;99.90;;;;;;5055411;28;21135;-77
2023/02/04 01:26:31;;;;;;;8.63;2.20;;;11.00;99.90;;;;;;5056039;28;20201;-77
2023/02/04 01:28:57;;;;;;;10.70;2.13;;;11.00;99.90;;;;;;5040342;28;20303;-77
2023/02/04 01:31:23;;;;;;;9.07;1.98;;;11.00;99.90;;;;;;5054489;28;20184;-77
2023/02/04 01:33:49;;;;;;;7.43;2.60;;;11.00;99.90;;;;;;5053831;28;20556;-77
2023/02/04 01:36:20;;;;;;;6.30;1.83;;;11.00;99.90;;;;;;5055920;28;20189;-77
2023/02/04 01:38:47;;;;;;;9.30;2.03;;;11.00;99.90;;;;;;5055667;28;20247;-77
2023/02/04 01:41:14;;;;;;;10.05;2.28;;;10.90;99.90;;;;;;5053944;28;20199;-77
2023/02/04 01:43:41;;;;;;;9.75;2.28;;;10.90;99.90;;;;;;5055720;28;20208;-77
2023/02/04 01:46:07;;;;;;;10.73;3.40;;;10.90;99.90;;;;;;5055588;28;20204;-77
2023/02/04 01:48:33;;;;;;;6.78;2.72;;;10.90;99.90;;;;;;5054345;28;20177;-77
2023/02/04 01:51:06;;;;;;;13.65;2.47;;;10.90;99.90;;;;;;5054440;28;20173;-76
2023/02/04 01:53:33;;;;;;;7.47;2.47;;;10.90;99.90;;;;;;5055070;28;20222;-77
2023/02/04 01:55:59;;;;;;;10.45;2.88;;;10.90;99.90;;;;;;5052516;28;20193;-77
2023/02/04 01:58:25;;;;;;;9.35;2.22;;;10.80;99.90;;;;;;5037423;28;20243;-77
2023/02/04 02:00:54;;;;;;;10.63;2.17;;;10.80;99.90;;;;;;5052963;28;20177;-76
2023/02/04 02:03:20;;;;;;;7.53;2.60;;;10.80;99.90;;;;;;5052751;28;20184;-77
2023/02/04 02:05:49;;;;;;;13.37;2.60;;;10.80;99.90;;;;;;5035667;28;20189;-77
2023/02/04 02:08:16;;;;;;;9.90;2.90;;;10.80;99.90;;;;;;5036358;28;20172;-76
2023/02/04 02:10:45;;;;;;;12.13;2.63;;;10.80;99.90;;;;;;5054073;28;20505;-77
2023/02/04 02:13:16;;;;;;;9.05;2.10;;;10.80;99.90;;;;;;5054545;28;20173;-77
2023/02/04 02:15:42;;;;;;;18.20;3.00;;;10.80;99.90;;;;;;5053252;28;20213;-76
2023/02/04 02:18:08;;;;;;;14.43;2.75;;;10.70;99.90;;;;;;5035352;28;20272;-76
2023/02/04 02:20:34;;;;;;;9.77;3.05;;;10.70;99.90;;;;;;5052748;28;20633;-76
2023/02/04 02:23:05;;;;;;;11.77;2.20;;;10.70;99.90;;;;;;5052652;28;20169;-76
2023/02/04 02:25:32;;;;;;;9.57;2.97;;;10.70;99.90;;;;;;5034801;28;20571;-77
2023/02/04 02:27:59;;;;;;;8.80;2.13;;;10.70;99.90;;;;;;5036140;28;20161;-77
2023/02/04 02:30:26;;;;;;;12.60;2.25;;;10.70;99.90;;;;;;5052725;28;20169;-76
2023/02/04 02:32:53;;;;;;;5.93;2.25;;;10.70;99.90;;;;;;5052275;28;20169;-77
2023/02/04 02:35:19;;;;;;;8.98;2.17;;;10.70;99.90;;;;;;5035532;28;20202;-76
2023/02/04 02:37:45;;;;;;;10.73;2.47;;;10.70;99.90;;;;;;5052366;28;20197;-76
2023/02/04 02:40:12;;;;;;;7.25;1.65;;;10.70;99.90;;;;;;5035882;28;20177;-77
2023/02/04 02:42:38;;;;;;;9.43;2.72;;;10.70;99.90;;;;;;5052329;28;20278;-76
2023/02/04 02:45:12;;;;;;;10.35;3.28;;;10.70;99.90;;;;;;5052104;28;20183;-77
2023/02/04 02:47:38;;;;;;;13.48;4.60;;;10.70;99.90;;;;;;5035471;28;20208;-76
2023/02/04 02:50:04;;;;;;;14.90;4.75;;;10.70;99.90;;;;;;5052928;28;20184;-78
2023/02/04 02:52:30;;;;;;;10.40;2.47;;;10.70;99.90;;;;;;5039288;28;20587;-77
2023/02/04 02:54:55;;;;;;;13.17;2.90;;;10.60;99.90;;;;;;5035185;28;20276;-77
2023/02/04 02:57:22;;;;;;;11.00;2.43;;;10.60;99.90;;;;;;5035099;28;20209;-77
2023/02/04 02:59:48;;;;;;;9.10;2.38;;;10.60;99.90;;;;;;5035527;28;20188;-77
2023/02/04 03:02:18;;;;;;;9.20;2.00;;;10.60;99.90;;;;;;5034908;28;20169;-77
2023/02/04 03:04:49;;;;;;;7.68;2.20;;;10.60;99.90;;;;;;5035172;28;20621;-77
2023/02/04 03:07:18;;;;;;;17.17;2.53;;;10.60;99.90;;;;;;5040466;28;20204;-77
2023/02/04 03:09:44;;;;;;;9.98;1.92;;;10.60;99.90;;;;;;5053544;28;20259;-77
2023/02/04 03:12:10;;;;;;;10.93;2.67;;;10.60;99.90;;;;;;5051611;28;20268;-77
2023/02/04 03:14:37;;;;;;;8.30;1.80;;;10.60;99.90;;;;;;5034120;28;20239;-77
2023/02/04 03:17:04;;;;;;;10.20;1.90;;;10.60;99.90;;;;;;5035112;28;20209;-77
2023/02/04 03:19:31;;;;;;;5.80;1.50;;;10.50;99.90;;;;;;5033933;28;20724;-77
2023/02/04 03:21:58;;;;;;;10.05;2.08;;;10.50;99.90;;;;;;5034597;28;20213;-77
2023/02/04 03:24:24;;;;;;;8.85;2.42;;;10.50;99.90;;;;;;5051396;28;20169;-77
2023/02/04 03:26:51;;;;;;;8.10;2.08;;;10.50;99.90;;;;;;5034260;28;20189;-77
2023/02/04 03:29:17;;;;;;;7.55;2.08;;;10.50;99.90;;;;;;5052368;28;20181;-77
2023/02/04 03:31:45;;;;;;;14.45;3.95;;;10.50;99.90;;;;;;5051192;28;20259;-77
2023/02/04 03:34:11;;;;;;;7.90;1.70;;;10.50;99.90;;;;;;5034136;28;20169;-77
2023/02/04 03:36:37;;;;;;;12.57;2.50;;;10.50;99.90;;;;;;5050813;28;20692;-77
2023/02/04 03:39:03;;;;;;;12.90;2.77;;;10.50;99.90;;;;;;5052202;28;20575;-77
2023/02/04 03:41:29;;;;;;;6.70;1.75;;;10.50;99.90;;;;;;5052106;28;20916;-77
2023/02/04 03:43:55;;;;;;;9.60;2.40;;;10.50;99.90;;;;;;5052443;28;20172;-77
2023/02/04 03:46:22;;;;;;;9.07;1.80;;;10.50;99.90;;;;;;5050102;28;20724;-76
2023/02/04 03:48:48;;;;;;;11.55;2.38;;;10.50;99.90;;;;;;5050901;28;20961;-77
2023/02/04 03:51:14;;;;;;;6.72;1.85;;;10.50;99.90;;;;;;5033771;28;20169;-77
2023/02/04 03:53:39;;;;;;;7.43;1.50;;;10.50;99.90;;;;;;5050893;28;20559;-79
2023/02/04 03:56:05;;;;;;;7.53;2.13;;;10.50;99.90;;;;;;5050020;28;20296;-76
2023/02/04 03:58:31;;;;;;;14.77;2.77;;;10.50;99.90;;;;;;5050559;28;20196;-76
2023/02/04 04:00:57;;;;;;;10.80;1.70;;;10.50;99.90;;;;;;5051812;28;20569;-76
2023/02/04 04:03:23;;;;;;;9.53;1.47;;;10.50;99.90;;;;;;5051524;28;20200;-76
2023/02/04 04:05:48;;;;;;;9.70;1.97;;;10.50;99.90;;;;;;5052615;28;20199;-76
2023/02/04 04:08:14;;;;;;;5.50;1.30;;;10.50;99.90;;;;;;5052257;28;20173;-76
2023/02/04 04:10:40;;;;;;;11.57;2.30;;;10.50;99.90;;;;;;5051592;28;20204;-76
2023/02/04 04:13:05;;;;;;;6.07;1.43;;;10.50;99.90;;;;;;5050168;28;20177;-76
2023/02/04 04:15:31;;;;;;;16.63;3.73;;;10.50;99.90;;;;;;5049846;28;20629;-76
2023/02/04 04:17:57;;;;;;;10.20;2.07;;;10.50;99.90;;;;;;5051311;28;20748;-76
2023/02/04 04:20:24;;;;;;;9.60;2.53;;;10.50;99.90;;;;;;5050234;28;20192;-76
2023/02/04 04:22:51;;;;;;;9.35;2.22;;;10.50;99.90;;;;;;5049968;28;20567;-76
2023/02/04 04:25:16;;;;;;;6.53;1.67;;;10.50;99.90;;;;;;5051173;28;20268;-75
2023/02/04 04:27:42;;;;;;;7.60;1.90;;;10.40;99.90;;;;;;5049912;28;20669;-76
2023/02/04 04:30:09;;;;;;;9.73;1.67;;;10.40;99.90;;;;;;5050280;28;20185;-76
2023/02/04 04:32:35;;;;;;;13.27;2.65;;;10.40;99.90;;;;;;5049349;28;20307;-76
2023/02/04 04:35:00;;;;;;;8.90;2.33;;;10.40;99.90;;;;;;5051098;28;20268;-76
2023/02/04 04:37:26;;;;;;;12.00;2.13;;;10.40;99.90;;;;;;5049868;28;20212;-76
2023/02/04 04:39:52;;;;;;;7.53;1.60;;;10.40;99.90;;;;;;5051319;28;20622;-76
2023/02/04 04:42:17;;;;;;;8.00;2.40;;;10.40;99.90;;;;;;5052909;28;20243;-76
2023/02/04 04:44:43;;;;;;;13.13;2.40;;;10.30;99.90;;;;;;5051252;28;20165;-75
2023/02/04 04:47:09;;;;;;;7.73;1.50;;;10.30;99.90;;;;;;5050538;28;20283;-76
2023/02/04 04:49:35;;;;;;;10.17;2.00;;;10.30;99.90;;;;;;5049836;28;20633;-76
2023/02/04 04:52:00;;;;;;;8.33;2.43;;;10.20;99.90;;;;;;5051198;28;20177;-77
2023/02/04 04:54:26;;;;;;;7.97;1.80;;;10.20;99.90;;;;;;5050727;28;20173;-76
2023/02/04 04:56:52;;;;;;;7.00;2.33;;;10.20;99.90;;;;;;5050533;28;20279;-76
2023/02/04 04:59:18;;;;;;;9.13;1.70;;;10.20;99.90;;;;;;5032931;28;20173;-76
2023/02/04 05:01:43;;;;;;;7.33;1.57;;;10.20;99.90;;;;;;5049075;28;20180;-76
2023/02/04 05:04:09;;;;;;;7.03;1.87;;;10.20;99.90;;;;;;5050888;28;20188;-76
2023/02/04 05:06:35;;;;;;;10.93;1.73;;;10.20;99.90;;;;;;5050588;28;20223;-76
2023/02/04 05:09:00;;;;;;;10.27;2.17;;;10.20;99.90;;;;;;5050932;28;20184;-76
2023/02/04 05:11:26;;;;;;;9.82;1.80;;;10.20;99.90;;;;;;5050912;28;20601;-77
2023/02/04 05:13:52;;;;;;;8.50;1.80;;;10.10;99.90;;;;;;5050268;28;20260;-76
2023/02/04 05:16:18;;;;;;;8.57;1.40;;;10.20;99.90;;;;;;5050113;28;20205;-76
2023/02/04 05:18:44;;;;;;;5.50;1.43;;;10.10;99.90;;;;;;5049805;28;20247;-77
2023/02/04 05:21:09;;;;;;;9.87;1.33;;;10.10;99.90;;;;;;5052971;28;20293;-76
2023/02/04 05:23:35;;;;;;;9.80;2.80;;;10.10;99.90;;;;;;5050971;28;20571;-76
2023/02/04 05:26:01;;;;;;;10.97;1.97;;;10.10;99.90;;;;;;5050132;28;20185;-76
2023/02/04 05:28:26;;;;;;;13.73;1.93;;;10.10;99.90;;;;;;5051116;28;20272;-76
2023/02/04 05:30:52;;;;;;;7.03;1.97;;;10.10;99.90;;;;;;5049901;28;20181;-76
2023/02/04 05:33:18;;;;;;;16.20;3.27;;;10.10;99.90;;;;;;5049285;28;20234;-76
2023/02/04 05:35:43;;;;;;;10.20;1.70;;;10.00;99.90;;;;;;5050279;28;20185;-76
2023/02/04 05:38:09;;;;;;;10.33;3.20;;;10.10;99.90;;;;;;5050802;28;20208;-76
2023/02/04 05:40:35;;;;;;;7.90;1.93;;;10.10;99.90;;;;;;5050463;28;20173;-76
2023/02/04 05:43:00;;;;;;;9.40;1.83;;;10.00;99.90;;;;;;5050701;28;20176;-77
2023/02/04 05:45:26;;;;;;;7.53;1.60;;;10.00;99.90;;;;;;5049859;28;20180;-77
2023/02/04 05:47:52;;;;;;;11.33;2.07;;;10.00;99.90;;;;;;5050609;28;20165;-77
2023/02/04 05:50:18;;;;;;;7.07;1.70;;;10.00;99.90;;;;;;5049523;28;20177;-77
2023/02/04 05:52:44;;;;;;;8.33;1.97;;;10.00;99.90;;;;;;5050792;28;20253;-76
2023/02/04 05:55:10;;;;;;;7.53;2.50;;;10.00;99.90;;;;;;5054590;28;20184;-76
2023/02/04 05:57:38;;;;;;;10.05;2.08;;;10.00;99.90;;;;;;5056385;28;20240;-77
2023/02/04 06:00:04;;;;;;;6.53;1.83;;;9.90;99.90;;;;;;5052872;28;20177;-77
2023/02/04 06:02:37;;;;;;;9.00;2.20;;;9.90;99.90;;;;;;5054314;28;20173;-77
2023/02/04 06:05:03;;;;;;;16.07;2.77;;;9.90;99.90;;;;;;5052531;28;20706;-77
2023/02/04 06:07:29;;;;;;;10.20;2.07;;;9.90;99.90;;;;;;5052295;28;20619;-77
2023/02/04 06:09:55;;;;;;;9.57;2.70;;;9.90;99.90;;;;;;5052998;28;21132;-77
2023/02/04 06:12:20;;;;;;;5.67;1.47;;;9.90;99.90;;;;;;5052204;28;20180;-77
2023/02/04 06:14:46;;;;;;;6.70;1.63;;;9.90;99.90;;;;;;5052182;28;20231;-76
2023/02/04 06:17:11;;;;;;;13.10;2.23;;;9.80;99.90;;;;;;5052234;28;20200;-77
2023/02/04 06:19:37;;;;;;;8.53;2.47;;;9.80;99.90;;;;;;5052818;28;20239;-76
2023/02/04 06:22:03;;;;;;;8.73;2.60;;;9.90;99.90;;;;;;5053349;28;20173;-76
2023/02/04 06:24:28;;;;;;;11.10;2.57;;;9.80;99.90;;;;;;5054002;28;20614;-76
2023/02/04 06:26:54;;;;;;;6.03;2.13;;;9.80;99.90;;;;;;5052048;28;20733;-76
2023/02/04 06:29:20;;;;;;;8.70;1.97;;;9.90;99.90;;;;;;5052023;28;20176;-76
2023/02/04 06:31:47;;;;;;;7.63;1.90;;;9.80;99.90;;;;;;5052258;28;20173;-76
2023/02/04 06:34:13;;;;;;;11.75;1.80;;;9.80;99.90;;;;;;5057089;28;20177;-76
2023/02/04 06:36:38;;;;;;;9.93;1.70;;;9.80;99.90;;;;;;5052499;28;20548;-76
2023/02/04 06:39:04;;;;;;;9.17;4.40;;;9.80;99.90;;;;;;5051956;28;20231;-76
2023/02/04 06:41:30;;;;;;;8.70;2.73;;;9.80;99.90;;;;;;5051812;28;20176;-76
2023/02/04 06:43:55;;;;;;;7.60;2.17;;;9.80;99.90;;;;;;5052915;28;20169;-76
2023/02/04 06:46:21;;;;;;;14.70;3.33;;;9.80;99.90;;;;;;5052927;28;20280;-75
2023/02/04 06:48:47;;;;;;;8.30;1.70;;;9.80;99.90;;;;;;5053164;28;20205;-76
2023/02/04 06:51:12;;;;;;;8.73;2.27;;;9.70;99.90;;;;;;5052083;28;20185;-76
2023/02/04 06:53:39;;;;;;;9.23;2.20;;;9.70;99.90;;;;;;5051589;28;20241;-76
2023/02/04 06:56:05;;;;;;;7.20;1.88;;;9.80;99.90;;;;;;5051255;28;20193;-76
2023/02/04 06:58:30;;;;;;;6.43;2.40;;;9.70;99.90;;;;;;5051639;28;20215;-76
2023/02/04 07:00:56;;;;;;;10.53;2.10;;;9.70;99.90;;;;;;5051660;28;20582;-76
2023/02/04 07:03:22;;;;;;;12.27;2.23;;;9.70;99.90;;;;;;5034827;28;20184;-78
2023/02/04 07:05:47;;;;;;;8.83;2.67;;;9.70;99.90;;;;;;5052545;28;20189;-78
2023/02/04 07:08:13;;;;;;;14.33;2.47;;;9.70;99.90;;;;;;5052072;28;20272;-78
2023/02/04 07:10:39;;;;;;;9.20;3.40;;;9.70;99.90;;;;;;5053418;28;20176;-79
2023/02/04 07:13:04;;;;;;;11.73;2.10;;;9.70;99.90;;;;;;5054833;28;20165;-78
2023/02/04 07:15:30;;;;;;;8.23;2.87;;;9.70;99.90;;;;;;5034284;28;20222;-78
2023/02/04 07:17:56;;;;;;;10.07;2.80;;;9.70;99.90;;;;;;5052820;28;20239;-78
2023/02/04 07:20:21;;;;;;;14.90;2.83;;;9.70;99.90;;;;;;5052431;28;20164;-77
2023/02/04 07:22:47;;;;;;;12.40;2.80;;;9.60;99.90;;;;;;5052542;28;20169;-78
2023/02/04 07:25:14;;;;;;;9.33;2.10;;;9.60;99.90;;;;;;5051917;28;20172;-77
2023/02/04 07:27:40;;;;;;;12.35;2.92;;;9.60;99.90;;;;;;5052406;28;20669;-78
2023/02/04 07:30:06;;;;;;;11.30;2.90;;;9.60;99.90;;;;;;5051302;28;20184;-78
2023/02/04 07:32:32;;;;;;;5.95;2.53;;;9.60;99.90;;;;;;5050770;28;20199;-78
2023/02/04 07:35:01;;;;;;;9.70;3.60;;;9.60;99.90;;;;;;5050744;28;20180;-78
2023/02/04 07:37:27;;;;;;;9.88;2.80;;;9.60;99.90;;;;;;5050679;28;20300;-77
2023/02/04 07:39:52;;;;;;;12.00;2.70;;;9.60;99.90;;;;;;5052459;28;20607;-78
2023/02/04 07:42:18;;;;;;;12.03;3.03;;;9.70;99.90;;;;;;5051577;28;20576;-78
2023/02/04 07:44:51;;;;;;;12.45;2.83;;;9.70;99.90;;;;;;5050753;28;20552;-77
2023/02/04 07:47:17;;;;;;;8.50;2.37;;;9.70;99.90;;;;;;5051389;28;20196;-79
2023/02/04 07:49:42;;;;;;;8.13;2.90;;;9.80;99.90;;;;;;5057737;28;20181;-77
2023/02/04 07:52:08;;;;;;;11.40;3.90;;;9.80;99.90;;;;;;5033675;28;20177;-78
2023/02/04 07:54:34;;;;;;;11.37;3.10;;;9.90;99.90;;;;;;5050661;28;20183;-77
2023/02/04 07:57:00;;;;;;;12.13;3.20;;;9.90;99.90;;;;;;5050252;28;20660;-77
2023/02/04 07:59:25;;;;;;;8.60;2.40;;;10.00;99.90;;;;;;5052324;28;20165;-77
2023/02/04 08:01:51;;;;;;;7.17;2.77;;;10.00;99.90;;;;;;5051200;28;20161;-77
2023/02/04 08:04:17;;;;;;;8.07;2.57;;;10.10;99.90;;;;;;5050625;28;20251;-78
2023/02/04 08:06:42;;;;;;;10.87;2.90;;;10.10;99.90;;;;;;5049635;28;20189;-77
2023/02/04 08:09:08;;;;;;;13.20;2.40;;;10.20;99.90;;;;;;5057933;28;20177;-77
2023/02/04 08:11:34;;;;;;;10.93;3.50;;;10.30;99.90;;;;;;5049316;28;20180;-78
2023/02/04 08:13:59;;;;;;;13.60;3.77;;;10.30;99.90;;;;;;5046755;28;20181;-78
2023/02/04 08:16:25;;;;;;;9.50;2.93;;;10.30;99.90;;;;;;5050281;28;20199;-78
2023/02/04 08:18:51;;;;;;;15.40;3.93;;;10.40;99.90;;;;;;5050060;28;20712;-77
2023/02/04 08:21:16;;;;;;;10.43;2.70;;;10.40;99.90;;;;;;5050232;28;20626;-77
2023/02/04 08:23:42;;;;;;;12.00;4.30;;;10.40;99.90;;;;;;5049672;28;20660;-77
2023/02/04 08:26:10;;;;;;;12.23;2.90;;;10.50;99.90;;;;;;5047759;28;20205;-78
2023/02/04 08:28:36;;;;;;;12.32;3.20;;;10.50;99.90;;;;;;5041018;28;20273;-78
2023/02/04 08:31:04;;;;;;;8.38;3.25;;;10.60;99.90;;;;;;5050039;28;20181;-78
2023/02/04 08:33:29;;;;;;;13.13;3.67;;;10.70;99.90;;;;;;5051171;28;20185;-77
2023/02/04 08:35:55;;;;;;;10.17;3.20;;;10.80;99.90;;;;;;5051009;28;20185;-78
2023/02/04 08:38:21;;;;;;;13.43;3.23;;;10.90;99.90;;;;;;5049953;28;20602;-78
2023/02/04 08:40:46;;;;;;;8.43;3.27;;;11.00;99.90;;;;;;5051633;28;20177;-78
2023/02/04 08:43:12;;;;;;;14.40;3.87;;;11.00;99.90;;;;;;5031250;28;20546;-78
2023/02/04 08:45:38;;;;;;;8.40;2.87;;;11.10;99.90;;;;;;5049089;28;20181;-78
2023/02/04 08:48:03;;;;;;;17.77;3.43;;;11.10;99.90;;;;;;5049883;28;20204;-78
2023/02/04 08:50:29;;;;;;;12.43;2.97;;;11.20;99.90;;;;;;5050960;28;20189;-78
2023/02/04 08:52:55;;;;;;;16.15;4.05;;;11.20;99.90;;;;;;5049813;28;20184;-78
2023/02/04 08:55:21;;;;;;;14.30;3.63;;;11.30;99.90;;;;;;5049462;28;20221;-78
2023/02/04 08:57:47;;;;;;;15.77;3.53;;;11.30;99.90;;;;;;5051075;28;20722;-78
2023/02/04 09:00:13;;;;;;;9.33;2.87;;;11.40;99.90;;;;;;5051082;28;20165;-78
2023/02/04 09:02:38;;;;;;;10.93;3.28;;;11.40;99.90;;;;;;5051882;28;20271;-80
2023/02/04 09:05:05;;;;;;;10.17;3.50;;;11.50;99.90;;;;;;5050811;28;20227;-81
2023/02/04 09:07:30;;;;;;;16.30;5.07;;;11.60;99.90;;;;;;5033206;28;20197;-82
2023/02/04 09:09:56;;;;;;;13.90;4.20;;;11.60;99.90;;;;;;5051500;28;20184;-81
2023/02/04 09:12:21;;;;;;;15.57;3.70;;;11.70;99.90;;;;;;5051050;28;20177;-80
2023/02/04 09:14:47;;;;;;;12.73;3.10;;;11.80;99.90;;;;;;5050443;28;20209;-80
2023/02/04 09:17:13;;;;;;;16.10;4.40;;;11.90;99.90;;;;;;5050622;28;20193;-80
2023/02/04 09:19:38;;;;;;;11.53;3.37;;;12.00;99.90;;;;;;5049315;28;20571;-80
2023/02/04 09:22:04;;;;;;;10.93;3.30;;;12.10;99.90;;;;;;5048101;28;20172;-79
2023/02/04 09:24:30;;;;;;;13.33;3.80;;;12.20;99.90;;;;;;5050699;28;20219;-79
2023/02/04 09:26:55;;;;;;;10.17;3.37;;;12.30;99.90;;;;;;5048794;28;20189;-80
2023/02/04 09:29:21;;;;;;;15.13;3.40;;;12.40;99.90;;;;;;5054297;28;20173;-80
2023/02/04 09:31:47;;;;;;;11.00;4.17;;;12.50;99.90;;;;;;5051575;28;20173;-79
2023/02/04 09:34:13;;;;;;;13.82;4.82;;;12.60;99.90;;;;;;5053906;28;20196;-79
2023/02/04 09:36:39;;;;;;;13.55;4.10;;;12.70;99.90;;;;;;5051711;28;20270;-79
2023/02/04 09:39:06;;;;;;;21.60;5.53;;;12.70;99.90;;;;;;5052340;28;20201;-80
2023/02/04 09:41:33;;;;;;;15.40;3.65;;;12.80;99.90;;;;;;5055846;28;20202;-80
2023/02/04 09:43:59;;;;;;;12.60;4.47;;;12.80;99.90;;;;;;5054533;28;20180;-80
2023/02/04 09:46:29;;;;;;;16.47;4.60;;;12.90;99.90;;;;;;5069477;28;20611;-80
2023/02/04 09:48:57;;;;;;;15.10;5.10;;;12.90;99.90;;;;;;5048365;28;20618;-79
2023/02/04 09:51:26;;;;;;;17.80;5.72;;;12.90;99.90;;;;;;5052743;28;20579;-79
2023/02/04 09:53:54;;;;;;;15.70;4.65;;;13.00;99.90;;;;;;5052878;28;20177;-78
2023/02/04 09:56:20;;;;;;;14.00;4.50;;;13.00;99.90;;;;;;5053905;28;20673;-79
2023/02/04 09:58:46;;;;;;;14.03;4.47;;;13.00;99.90;;;;;;5052745;28;20771;-78
2023/02/04 10:01:18;;;;;;;11.47;4.87;;;13.00;99.90;;;;;;5053926;28;20578;-79
2023/02/04 10:03:46;;;;;;;16.00;4.60;;;13.00;99.90;;;;;;5053836;28;20206;-79
2023/02/04 10:06:14;;;;;;;13.73;4.50;;;13.00;99.90;;;;;;5052370;28;20702;-79
2023/02/04 10:08:40;;;;;;;14.73;5.43;;;13.00;99.90;;;;;;5049894;28;20614;-79
2023/02/04 10:11:08;;;;;;;39.77;6.20;;;13.10;99.90;;;;;;5053711;28;20678;-79
2023/02/04 10:13:41;;;;;;;11.60;4.87;;;13.10;99.90;;;;;;5052595;28;20584;-80
2023/02/04 10:16:16;;;;;;;19.27;5.90;;;13.00;99.90;;;;;;5048746;28;20658;-81
2023/02/04 10:18:43;;;;;;;15.27;6.60;;;13.00;99.90;;;;;;5054200;28;20653;-79
2023/02/04 10:21:14;;;;;;;14.87;5.70;;;13.00;99.90;;;;;;5058249;28;20181;-80
2023/02/04 10:23:41;;;;;;;20.15;7.07;;;12.90;99.90;;;;;;5063533;28;20579;-77
2023/02/04 10:26:10;;;;;;;20.73;7.70;;;12.90;99.90;;;;;;5065916;28;20253;-76
2023/02/04 10:28:37;;;;;;;22.30;7.90;;;12.80;99.90;;;;;;5064970;28;20177;-80
2023/02/04 10:31:03;;;;;;;17.70;6.78;;;12.80;99.90;;;;;;5060125;28;20173;-79
2023/02/04 10:33:30;;;;;;;16.10;6.20;;;12.70;99.90;;;;;;5059058;28;20187;-79
2023/02/04 10:35:56;;;;;;;18.98;5.80;;;12.70;99.90;;;;;;5054313;28;20618;-77
2023/02/04 10:38:22;;;;;;;17.23;7.13;;;12.70;99.90;;;;;;5052603;28;20201;-77
2023/02/04 10:41:00;;;;;;;16.55;5.38;;;12.70;99.90;;;;;;5053672;28;20946;-76
2023/02/04 10:43:26;;;;;;;18.38;6.35;;;12.60;99.90;;;;;;5052268;28;20255;-76
2023/02/04 10:45:58;;;;;;;17.57;6.53;;;12.60;99.90;;;;;;5051508;28;20284;-76
2023/02/04 10:48:24;;;;;;;17.17;8.20;;;12.60;99.90;;;;;;5052251;28;20173;-78
2023/02/04 10:50:51;;;;;;;14.65;6.60;;;12.50;99.90;;;;;;5053119;28;20173;-76
2023/02/04 10:56:18;;;;;;;22.45;8.23;;;12.60;99.90;;;;;;5056752;28;20291;-77
2023/02/04 10:58:44;;;;;;;20.27;7.60;;;12.50;99.90;;;;;;5059181;28;20208;-78
2023/02/04 11:01:11;;;;;;;23.13;7.72;;;12.60;99.90;;;;;;5061035;28;20181;-77
2023/02/04 11:03:39;;;;;;;17.58;7.68;;;12.60;99.90;;;;;;5061087;28;20538;-79
2023/02/04 11:06:10;;;;;;;17.58;8.90;;;12.60;99.90;;;;;;5058342;28;20217;-78
2023/02/04 11:08:37;;;;;;;21.08;8.45;;;12.60;99.90;;;;;;5053485;28;20169;-76
2023/02/04 11:11:11;;;;;;;21.02;8.27;;;12.60;99.90;;;;;;5052658;28;20158;-77
2023/02/04 11:13:44;;;;;;;19.20;8.70;;;12.70;99.90;;;;;;5051349;28;20226;-77
2023/02/04 11:16:21;;;;;;;23.88;10.35;;;12.80;99.90;;;;;;5054770;28;20646;-76
2023/02/04 11:18:50;;;;;;;16.53;8.07;;;12.90;99.90;;;;;;5056918;28;20204;-76
2023/02/04 11:21:22;;;;;;;20.17;8.52;;;13.10;99.90;;;;;;5053924;28;20619;-76
2023/02/04 11:23:48;;;;;;;18.40;8.80;;;13.30;99.90;;;;;;5054546;28;20164;-78
2023/02/04 11:26:30;;;;;;;16.90;9.30;;;13.40;99.90;;;;;;5053556;28;21225;-77
2023/02/04 11:28:59;;;;;;;24.67;9.97;;;13.50;99.90;;;;;;5054759;28;20649;-77
2023/02/04 11:31:37;;;;;;;18.30;9.07;;;13.70;99.90;;;;;;5057536;28;20591;-77
2023/02/04 11:34:12;;;;;;;16.00;8.17;;;13.80;99.90;;;;;;5056142;28;20579;-78
2023/02/04 11:36:55;;;;;;;22.40;8.93;;;13.90;99.90;;;;;;5062250;28;20618;-77
2023/02/04 11:39:22;;;;;;;17.57;7.90;;;13.90;99.90;;;;;;5061313;28;20606;-77
2023/02/04 11:41:48;;;;;;;18.57;6.80;;;14.00;99.90;;;;;;5061082;28;20577;-77
2023/02/04 11:44:16;;;;;;;15.57;6.93;;;14.00;99.90;;;;;;5059861;28;20580;-77
2023/02/04 11:46:42;;;;;;;19.93;8.27;;;13.90;99.90;;;;;;5060163;28;20611;-77
2023/02/04 11:49:19;;;;;;;19.30;7.33;;;14.00;99.90;;;;;;5058777;28;20897;-77
2023/02/04 11:51:45;;;;;;;17.07;8.20;;;14.00;99.90;;;;;;5057234;28;20184;-77
2023/02/04 11:54:17;;;;;;;19.70;9.07;;;14.10;99.90;;;;;;5056260;28;20596;-76
2023/02/04 11:56:45;;;;;;;14.23;7.47;;;14.10;99.90;;;;;;5057803;28;20595;-76
2023/02/04 12:03:22;;;;;;;23.60;7.97;;;14.20;99.90;;;;;;5055013;28;20610;-76
2023/02/04 12:05:48;;;;;;;22.80;6.73;;;14.30;99.90;;;;;;5055383;28;20611;-77
2023/02/04 12:08:23;;;;;;;15.70;7.03;;;14.30;99.90;;;;;;5055777;28;20614;-77
2023/02/04 12:11:01;;;;;;;15.27;7.67;;;14.30;99.90;;;;;;5062470;28;20583;-77
2023/02/04 12:13:28;;;;;;;19.33;7.47;;;14.30;99.90;;;;;;5070660;28;20578;-77
2023/02/04 12:15:59;;;;;;;25.80;9.33;;;14.30;99.90;;;;;;5064467;28;20642;-77
2023/02/04 12:18:28;;;;;;;18.30;7.53;;;14.20;99.90;;;;;;5064762;28;20625;-76
2023/02/04 12:20:55;;;;;;;15.97;7.63;;;14.30;99.90;;;;;;5063520;28;20599;-76
2023/02/04 12:23:22;;;;;;;19.87;9.20;;;14.30;99.90;;;;;;5064923;28;20595;-76
2023/02/04 12:25:48;;;;;;;20.37;10.63;;;14.30;99.90;;;;;;5064606;28;20639;-78
2023/02/04 12:28:14;;;;;;;18.10;8.43;;;14.30;99.90;;;;;;5070956;28;20592;-77
2023/02/04 12:30:40;;;;;;;21.30;10.07;;;14.30;99.90;;;;;;5072266;28;20595;-78
2023/02/04 12:33:06;;;;;;;16.60;8.47;;;14.30;99.90;;;;;;5070625;28;20563;-78
2023/02/04 12:35:32;;;;;;;21.17;9.77;;;14.30;99.90;;;;;;5072637;28;20168;-78
2023/02/04 12:37:58;;;;;;;19.07;9.23;;;14.30;99.90;;;;;;5063456;28;20626;-78
2023/02/04 12:40:24;;;;;;;14.97;7.23;;;14.30;99.90;;;;;;5061741;28;20591;-78
2023/02/04 12:42:50;;;;;;;19.33;7.20;;;14.40;99.90;;;;;;5059589;28;20166;-78
2023/02/04 12:45:17;;;;;;;15.10;6.80;;;14.30;99.90;;;;;;5055453;28;20177;-78
2023/02/04 12:47:43;;;;;;;17.90;7.70;;;14.30;99.90;;;;;;5055139;28;20207;-78